createdAt,value
2022-09-30T00:00:28.145Z,21.84
2022-09-30T00:02:55.586Z,21.72
2022-09-30T00:05:22.779Z,22.11
2022-09-30T00:07:50.385Z,21.93
2022-09-30T00:10:17.780Z,22.22
2022-09-30T00:12:44.911Z,22.20
2022-09-30T00:15:12.059Z,22.36
2022-09-30T00:17:39.445Z,22.38
2022-09-30T00:20:06.873Z,22.34
2022-09-30T00:22:34.031Z,21.95
2022-09-30T00:25:01.683Z,21.93
2022-09-30T00:27:28.930Z,21.77
2022-09-30T00:29:56.179Z,22.08
2022-09-30T00:32:23.584Z,21.86
2022-09-30T00:34:50.716Z,21.52
2022-09-30T00:37:17.865Z,21.73
2022-09-30T00:39:45.247Z,21.93
2022-09-30T00:42:14.244Z,21.94
2022-09-30T00:44:45.849Z,21.63
2022-09-30T00:47:22.388Z,21.88
2022-09-30T00:49:49.716Z,21.59
2022-09-30T00:52:17.126Z,21.62
2022-09-30T00:54:44.858Z,21.93
2022-09-30T00:57:11.982Z,22.19
2022-09-30T00:59:43.559Z,21.87
2022-09-30T01:02:13.698Z,21.98
2022-09-30T01:04:42.517Z,22.13
2022-09-30T01:07:09.935Z,22.19
2022-09-30T01:09:37.688Z,21.90
2022-09-30T01:12:05.711Z,21.11
2022-09-30T01:14:32.822Z,21.31
2022-09-30T01:17:06.691Z,20.37
2022-09-30T01:19:49.163Z,20.51
2022-09-30T01:22:28.562Z,21.06
2022-09-30T01:25:28.142Z,19.99
2022-09-30T01:27:55.215Z,19.44
2022-09-30T01:30:23.468Z,18.99
2022-09-30T01:32:50.887Z,20.29
2022-09-30T01:35:36.920Z,18.96
2022-09-30T01:38:10.650Z,19.32
2022-09-30T01:40:48.351Z,18.80
2022-09-30T01:43:15.641Z,19.29
2022-09-30T01:45:44.242Z,19.49
2022-09-30T01:48:20.402Z,19.33
2022-09-30T01:50:58.893Z,17.79
2022-09-30T01:53:46.073Z,18.20
2022-09-30T01:56:16.622Z,17.81
2022-09-30T01:58:47.016Z,18.43
2022-09-30T02:01:16.672Z,18.29
2022-09-30T02:03:45.610Z,18.24
2022-09-30T02:06:14.007Z,18.16
2022-09-30T02:08:41.755Z,18.65
2022-09-30T02:11:10.885Z,18.80
2022-09-30T02:13:47.241Z,17.60
2022-09-30T02:16:16.058Z,17.84
2022-09-30T02:18:47.527Z,18.26
2022-09-30T02:21:15.898Z,19.47
2022-09-30T02:23:43.506Z,19.97
2022-09-30T02:26:18.254Z,20.49
2022-09-30T02:28:46.734Z,19.92
2022-09-30T02:31:13.900Z,19.31
2022-09-30T02:33:45.379Z,19.86
2022-09-30T02:36:16.643Z,18.96
2022-09-30T02:38:44.583Z,20.26
2022-09-30T02:41:30.266Z,19.96
2022-09-30T02:43:57.654Z,19.97
2022-09-30T02:46:26.269Z,20.38
2022-09-30T02:48:59.443Z,20.84
2022-09-30T02:51:35.087Z,19.94
2022-09-30T02:54:25.592Z,19.31
2022-09-30T02:56:53.100Z,20.06
2022-09-30T02:59:20.467Z,20.57
2022-09-30T03:01:47.802Z,20.77
2022-09-30T03:04:15.471Z,20.87
2022-09-30T03:06:42.584Z,20.55
2022-09-30T03:09:10.432Z,20.70
2022-09-30T03:11:38.408Z,21.13
2022-09-30T03:14:14.569Z,20.33
2022-09-30T03:17:01.128Z,20.45
2022-09-30T03:20:03.849Z,20.10
2022-09-30T03:22:33.751Z,20.10
2022-09-30T03:25:00.795Z,18.18
2022-09-30T03:27:27.855Z,18.06
2022-09-30T03:30:08.162Z,18.26
2022-09-30T03:32:41.326Z,17.34
2022-09-30T03:35:24.037Z,19.22
2022-09-30T03:37:56.918Z,19.21
2022-09-30T03:40:33.057Z,18.61
2022-09-30T03:43:05.043Z,17.66
2022-09-30T03:45:40.186Z,17.56
2022-09-30T03:48:07.879Z,17.25
2022-09-30T03:50:36.361Z,17.79
2022-09-30T03:53:04.429Z,17.25
2022-09-30T03:55:33.605Z,16.99
2022-09-30T03:58:01.002Z,16.25
2022-09-30T04:00:28.115Z,17.08
2022-09-30T04:02:57.894Z,16.91
2022-09-30T04:05:25.225Z,17.16
2022-09-30T04:07:52.479Z,17.26
2022-09-30T04:10:19.884Z,16.96
2022-09-30T04:12:47.114Z,16.94
2022-09-30T04:15:14.447Z,17.35
2022-09-30T04:17:41.846Z,16.99
2022-09-30T04:20:09.001Z,17.55
2022-09-30T04:22:36.151Z,17.48
2022-09-30T04:25:03.795Z,17.89
2022-09-30T04:27:30.920Z,18.01
2022-09-30T04:29:58.045Z,17.49
2022-09-30T04:32:28.926Z,17.55
2022-09-30T04:35:00.926Z,16.98
2022-09-30T04:37:28.311Z,17.25
2022-09-30T04:39:55.402Z,18.40
2022-09-30T04:42:22.512Z,17.30
2022-09-30T04:44:49.935Z,18.71
2022-09-30T04:47:17.079Z,18.79
2022-09-30T04:49:44.696Z,18.18
2022-09-30T04:52:12.128Z,19.16
2022-09-30T04:54:39.644Z,18.08
2022-09-30T04:57:06.786Z,18.64
2022-09-30T04:59:34.173Z,18.60
2022-09-30T05:02:01.961Z,18.29
2022-09-30T05:04:29.971Z,18.45
2022-09-30T05:06:57.504Z,18.43
2022-09-30T05:09:24.768Z,18.03
2022-09-30T05:11:52.145Z,17.69
2022-09-30T05:14:19.531Z,18.54
2022-09-30T05:16:46.665Z,18.94
2022-09-30T05:19:13.967Z,18.38
2022-09-30T05:21:44.885Z,18.62
2022-09-30T05:24:12.163Z,17.59
2022-09-30T05:26:40.222Z,18.66
2022-09-30T05:29:07.692Z,19.18
2022-09-30T05:31:34.937Z,19.04
2022-09-30T05:34:02.091Z,18.11
2022-09-30T05:36:29.930Z,17.59
2022-09-30T05:38:57.032Z,17.80
2022-09-30T05:41:24.641Z,16.82
2022-09-30T05:43:52.054Z,17.48
2022-09-30T05:46:19.857Z,17.13
2022-09-30T05:48:47.047Z,18.17
2022-09-30T05:51:14.481Z,17.78
2022-09-30T05:53:42.390Z,18.20
2022-09-30T05:56:09.820Z,17.91
2022-09-30T05:58:37.927Z,19.00
2022-09-30T06:01:12.845Z,19.64
2022-09-30T06:03:40.987Z,19.08
2022-09-30T06:06:08.098Z,18.35
2022-09-30T06:08:35.236Z,19.31
2022-09-30T06:11:07.591Z,19.61
2022-09-30T06:13:34.690Z,19.06
2022-09-30T06:16:02.188Z,19.52
2022-09-30T06:18:31.100Z,19.24
2022-09-30T06:20:58.869Z,19.66
2022-09-30T06:23:26.426Z,20.32
2022-09-30T06:25:54.292Z,20.49
2022-09-30T06:28:21.699Z,20.77
2022-09-30T06:30:48.830Z,20.52
2022-09-30T06:33:16.427Z,21.06
2022-09-30T06:35:43.943Z,21.50
2022-09-30T06:38:11.298Z,21.51
2022-09-30T06:40:38.706Z,21.60
2022-09-30T06:43:06.682Z,21.75
2022-09-30T06:45:35.673Z,21.74
2022-09-30T06:48:03.880Z,21.76
2022-09-30T06:50:31.517Z,22.29
2022-09-30T06:52:59.365Z,21.49
2022-09-30T06:55:27.231Z,21.78
2022-09-30T06:57:55.405Z,21.70
2022-09-30T07:00:23.174Z,22.21
2022-09-30T07:02:50.750Z,21.27
2022-09-30T07:05:17.864Z,21.26
2022-09-30T07:07:44.975Z,22.03
2022-09-30T07:10:12.348Z,21.75
2022-09-30T07:12:39.469Z,20.82
2022-09-30T07:15:10.282Z,21.71
2022-09-30T07:17:40.835Z,21.72
2022-09-30T07:20:08.351Z,21.73
2022-09-30T07:22:35.881Z,21.94
2022-09-30T07:25:03.998Z,22.30
2022-09-30T07:27:32.647Z,22.20
2022-09-30T07:32:48.008Z,21.42
2022-09-30T07:35:15.139Z,21.56
2022-09-30T07:37:42.309Z,21.82
2022-09-30T07:40:09.888Z,21.78
2022-09-30T07:42:37.499Z,22.22
2022-09-30T07:45:05.089Z,21.84
2022-09-30T07:47:32.502Z,22.10
2022-09-30T07:50:00.463Z,22.26
2022-09-30T07:52:27.588Z,21.97
2022-09-30T07:54:55.961Z,22.02
2022-09-30T07:57:23.282Z,22.46
2022-09-30T07:59:50.557Z,22.33
2022-09-30T08:02:18.455Z,22.22
2022-09-30T08:04:46.082Z,22.40
2022-09-30T08:07:13.685Z,22.46
2022-09-30T08:09:41.012Z,22.54
2022-09-30T08:12:08.708Z,22.25
2022-09-30T08:14:35.814Z,22.15
2022-09-30T08:17:02.938Z,21.17
2022-09-30T08:19:30.679Z,21.45
2022-09-30T08:21:57.955Z,21.45
2022-09-30T08:24:25.665Z,21.60
2022-09-30T08:26:53.485Z,21.05
2022-09-30T08:29:42.385Z,20.87
2022-09-30T08:32:08.312Z,21.19
2022-09-30T08:34:35.902Z,21.46
2022-09-30T08:37:08.824Z,21.56
2022-09-30T08:39:38.759Z,21.25
2022-09-30T08:42:32.286Z,20.44
2022-09-30T08:45:00.270Z,20.44
2022-09-30T08:47:29.700Z,20.81
2022-09-30T08:49:57.025Z,20.77
2022-09-30T08:52:30.888Z,20.71
2022-09-30T08:55:05.321Z,20.76
2022-09-30T08:57:36.598Z,20.87
2022-09-30T09:00:08.291Z,20.79
2022-09-30T09:02:42.646Z,21.16
2022-09-30T09:05:10.901Z,21.79
2022-09-30T09:07:38.243Z,21.62
2022-09-30T09:10:20.897Z,20.98
2022-09-30T09:12:54.274Z,20.98
2022-09-30T09:15:39.987Z,20.94
2022-09-30T09:18:26.251Z,20.49
2022-09-30T09:20:54.763Z,21.20
2022-09-30T09:23:22.365Z,21.07
2022-09-30T09:25:53.012Z,21.07
2022-09-30T09:28:26.336Z,21.03
2022-09-30T09:30:55.005Z,21.37
2022-09-30T09:33:23.106Z,21.23
2022-09-30T09:35:54.600Z,20.39
2022-09-30T09:38:30.560Z,20.70
2022-09-30T09:41:00.742Z,21.50
2022-09-30T09:43:49.229Z,21.68
2022-09-30T09:46:16.438Z,21.40
2022-09-30T09:48:44.811Z,20.97
2022-09-30T09:51:29.085Z,21.56
2022-09-30T09:53:58.157Z,21.38
2022-09-30T09:56:47.628Z,20.79
2022-09-30T09:59:18.048Z,21.33
2022-09-30T10:01:50.143Z,21.90
2022-09-30T10:04:19.931Z,21.50
2022-09-30T10:06:47.021Z,21.41
2022-09-30T10:09:29.700Z,21.93
2022-09-30T10:12:06.339Z,21.96
2022-09-30T10:14:38.004Z,22.17
2022-09-30T10:17:05.909Z,22.33
2022-09-30T10:19:34.444Z,21.64
2022-09-30T10:22:07.715Z,21.83
2022-09-30T10:24:37.260Z,22.24
2022-09-30T10:27:04.691Z,22.38
2022-09-30T10:29:32.830Z,22.08
2022-09-30T10:32:00.755Z,22.30
2022-09-30T10:34:32.340Z,22.41
2022-09-30T10:37:01.576Z,22.34
2022-09-30T10:39:39.004Z,21.42
2022-09-30T10:42:12.921Z,21.95
2022-09-30T10:44:44.133Z,22.23
2022-09-30T10:47:14.223Z,22.36
2022-09-30T10:50:03.439Z,22.34
2022-09-30T10:52:54.059Z,22.74
2022-09-30T10:55:21.685Z,22.00
2022-09-30T10:57:50.080Z,23.02
2022-09-30T11:00:18.918Z,23.44
2022-09-30T11:02:48.284Z,22.47
2022-09-30T11:05:19.381Z,22.93
2022-09-30T11:07:48.338Z,22.86
2022-09-30T11:10:34.382Z,22.96
2022-09-30T11:13:11.142Z,22.83
2022-09-30T11:15:40.723Z,23.00
2022-09-30T11:18:11.182Z,23.64
2022-09-30T11:20:39.935Z,23.37
2022-09-30T11:23:13.467Z,23.54
2022-09-30T11:25:45.805Z,22.54
2022-09-30T11:28:13.211Z,22.27
2022-09-30T11:30:47.482Z,22.97
2022-09-30T11:33:19.228Z,22.23
2022-09-30T11:35:46.622Z,22.43
2022-09-30T11:38:13.749Z,22.55
2022-09-30T11:40:48.034Z,23.22
2022-09-30T11:43:34.015Z,22.14
2022-09-30T11:46:13.653Z,22.11
2022-09-30T11:48:46.473Z,22.17
2022-09-30T11:51:13.786Z,22.03
2022-09-30T11:54:07.212Z,22.03
2022-09-30T11:56:39.311Z,22.61
2022-09-30T11:59:08.333Z,22.08
2022-09-30T12:01:43.982Z,22.41
2022-09-30T12:04:14.500Z,22.46
2022-09-30T12:06:47.231Z,21.59
2022-09-30T12:09:17.057Z,21.91
2022-09-30T12:11:49.834Z,22.94
2022-09-30T12:14:19.672Z,22.51
2022-09-30T12:16:47.076Z,21.28
2022-09-30T12:19:25.104Z,21.48
2022-09-30T12:21:54.259Z,22.00
2022-09-30T12:24:26.102Z,22.19
2022-09-30T12:26:53.505Z,22.35
2022-09-30T12:29:44.012Z,22.13
2022-09-30T12:32:11.774Z,21.46
2022-09-30T12:35:01.460Z,22.16
2022-09-30T12:37:32.771Z,22.96
2022-09-30T12:40:19.909Z,22.40
2022-09-30T12:42:48.026Z,23.08
2022-09-30T12:45:18.066Z,23.37
2022-09-30T12:47:46.626Z,23.06
2022-09-30T12:50:18.714Z,22.55
2022-09-30T12:52:45.952Z,22.70
2022-09-30T12:55:39.821Z,23.44
2022-09-30T12:58:07.074Z,23.08
2022-09-30T13:00:37.798Z,22.95
2022-09-30T13:03:05.970Z,22.85
2022-09-30T13:05:37.923Z,22.56
2022-09-30T13:08:07.385Z,23.87
2022-09-30T13:10:34.498Z,24.03
2022-09-30T13:13:10.743Z,22.87
2022-09-30T13:15:39.961Z,22.24
2022-09-30T13:18:19.355Z,23.20
2022-09-30T13:20:49.810Z,21.99
2022-09-30T13:23:35.717Z,22.03
2022-09-30T13:26:03.930Z,22.74
2022-09-30T13:28:37.175Z,22.95
2022-09-30T13:31:23.759Z,22.95
2022-09-30T13:34:01.388Z,22.73
2022-09-30T13:36:29.073Z,23.11
2022-09-30T13:39:26.566Z,23.43
2022-09-30T13:42:12.721Z,23.19
2022-09-30T13:44:58.489Z,22.64
2022-09-30T13:47:44.638Z,23.51
2022-09-30T13:50:25.783Z,23.08
2022-09-30T13:52:54.488Z,22.62
2022-09-30T13:55:23.199Z,22.81
2022-09-30T13:58:00.576Z,21.99
2022-09-30T14:00:33.732Z,22.69
2022-09-30T14:03:03.942Z,23.22
2022-09-30T14:05:40.288Z,22.73
2022-09-30T14:08:28.113Z,23.39
2022-09-30T14:10:57.143Z,23.81
2022-09-30T14:13:30.102Z,22.90
2022-09-30T14:16:05.169Z,22.91
2022-09-30T14:18:42.199Z,23.05
2022-09-30T14:21:25.848Z,23.02
2022-09-30T14:23:57.092Z,23.11
2022-09-30T14:26:44.053Z,22.75
2022-09-30T14:29:15.509Z,23.01
2022-09-30T14:31:46.011Z,23.03
2022-09-30T14:34:13.795Z,23.02
2022-09-30T14:36:41.028Z,23.35
2022-09-30T14:39:10.983Z,23.50
2022-09-30T14:41:38.648Z,23.49
2022-09-30T14:44:08.137Z,23.91
2022-09-30T14:46:36.947Z,23.27
2022-09-30T14:49:06.791Z,23.83
2022-09-30T14:51:37.994Z,23.79
2022-09-30T14:54:06.348Z,23.85
2022-09-30T14:56:35.409Z,24.12
2022-09-30T14:59:22.159Z,24.10
2022-09-30T15:01:51.463Z,24.07
2022-09-30T15:04:19.998Z,23.71
2022-09-30T15:06:48.180Z,24.27
2022-09-30T15:09:17.547Z,24.11
2022-09-30T15:11:44.666Z,23.93
2022-09-30T15:14:21.750Z,23.72
2022-09-30T15:17:01.317Z,23.53
2022-09-30T15:19:35.012Z,23.19
2022-09-30T15:22:03.554Z,23.42
2022-09-30T15:24:31.399Z,23.33
2022-09-30T15:26:58.661Z,24.05
2022-09-30T15:29:26.052Z,23.65
2022-09-30T15:31:59.892Z,23.67
2022-09-30T15:34:28.784Z,24.05
2022-09-30T15:37:06.824Z,24.44
2022-09-30T15:39:58.704Z,24.33
2022-09-30T15:42:36.420Z,24.36
2022-09-30T15:45:04.755Z,24.33
2022-09-30T15:47:31.882Z,24.49
2022-09-30T15:49:59.093Z,24.55
2022-09-30T15:52:28.148Z,24.46
2022-09-30T15:54:55.601Z,24.18
2022-09-30T15:57:41.377Z,24.43
2022-09-30T16:00:26.901Z,24.57
2022-09-30T16:02:54.362Z,24.36
2022-09-30T16:05:21.536Z,24.62
2022-09-30T16:07:48.679Z,24.51
2022-09-30T16:10:19.432Z,24.37
2022-09-30T16:12:49.466Z,24.30
2022-09-30T16:15:16.985Z,24.28
2022-09-30T16:17:47.854Z,24.41
2022-09-30T16:20:14.917Z,24.32
2022-09-30T16:22:42.286Z,24.44
2022-09-30T16:25:09.411Z,24.42
2022-09-30T16:27:36.577Z,24.31
2022-09-30T16:30:05.052Z,24.39
2022-09-30T16:32:33.318Z,24.37
2022-09-30T16:35:00.489Z,24.46
2022-09-30T16:37:28.144Z,24.37
2022-09-30T16:39:59.357Z,24.23
2022-09-30T16:42:27.274Z,24.09
2022-09-30T16:44:55.988Z,24.17
2022-09-30T16:47:23.118Z,24.32
2022-09-30T16:49:51.486Z,24.00
2022-09-30T16:52:18.866Z,23.91
2022-09-30T16:54:45.996Z,24.08
2022-09-30T16:57:13.729Z,24.09
2022-09-30T16:59:41.163Z,23.92
2022-09-30T17:02:10.866Z,23.96
2022-09-30T17:04:39.104Z,23.79
2022-09-30T17:07:14.501Z,23.75
2022-09-30T17:09:42.997Z,23.87
2022-09-30T17:12:12.218Z,23.79
2022-09-30T17:14:39.588Z,23.75
2022-09-30T17:17:09.835Z,23.60
2022-09-30T17:19:40.558Z,23.62
2022-09-30T17:22:07.666Z,23.75
2022-09-30T17:24:35.702Z,23.79
2022-09-30T17:27:03.791Z,23.91
2022-09-30T17:29:32.946Z,23.74
2022-09-30T17:32:01.546Z,23.78
2022-09-30T17:34:30.073Z,23.64
2022-09-30T17:36:57.322Z,23.49
2022-09-30T17:39:25.607Z,23.78
2022-09-30T17:42:11.900Z,23.82
2022-09-30T17:44:39.179Z,23.91
2022-09-30T17:47:06.672Z,23.88
2022-09-30T17:49:36.939Z,23.97
2022-09-30T17:52:04.271Z,23.67
2022-09-30T17:54:33.323Z,23.75
2022-09-30T17:57:00.479Z,23.62
2022-09-30T17:59:28.872Z,23.72
2022-09-30T18:01:59.264Z,23.75
2022-09-30T18:04:26.736Z,23.66
2022-09-30T18:06:54.542Z,23.70
2022-09-30T18:09:22.069Z,23.59
2022-09-30T18:11:49.637Z,23.45
2022-09-30T18:16:58.684Z,23.35
2022-09-30T18:19:25.872Z,23.23
2022-09-30T18:21:52.971Z,23.33
2022-09-30T18:24:40.354Z,23.19
2022-09-30T18:27:09.260Z,23.25
2022-09-30T18:29:38.364Z,23.19
2022-09-30T18:32:05.924Z,23.23
2022-09-30T18:34:33.479Z,23.21
2022-09-30T18:37:06.446Z,23.24
2022-09-30T18:39:34.247Z,23.16
2022-09-30T18:42:01.728Z,23.17
2022-09-30T18:44:30.286Z,23.18
2022-09-30T18:46:58.065Z,23.22
2022-09-30T18:49:25.443Z,23.21
2022-09-30T18:51:52.862Z,23.29
2022-09-30T18:54:20.006Z,23.14
2022-09-30T18:56:47.627Z,22.70
2022-09-30T18:59:18.273Z,22.28
2022-09-30T19:01:49.743Z,21.75
2022-09-30T19:04:17.464Z,22.34
2022-09-30T19:06:45.357Z,22.71
2022-09-30T19:09:12.974Z,22.76
2022-09-30T19:11:44.919Z,22.74
2022-09-30T19:14:12.860Z,22.46
2022-09-30T19:16:40.258Z,22.54
2022-09-30T19:19:10.485Z,22.60
2022-09-30T19:21:41.249Z,22.49
2022-09-30T19:24:08.961Z,22.83
2022-09-30T19:26:37.104Z,22.62
2022-09-30T19:29:05.838Z,22.59
2022-09-30T19:31:34.774Z,22.70
2022-09-30T19:34:02.697Z,22.78
2022-09-30T19:36:39.677Z,22.98
2022-09-30T19:39:14.706Z,23.05
2022-09-30T19:41:42.248Z,23.14
2022-09-30T19:44:09.373Z,23.21
2022-09-30T19:46:36.508Z,23.24
2022-09-30T19:51:33.082Z,23.26
2022-09-30T19:54:06.761Z,23.23
2022-09-30T19:56:36.028Z,23.23
2022-09-30T19:59:04.148Z,23.23
2022-09-30T20:01:34.956Z,23.21
2022-09-30T20:04:05.182Z,23.46
2022-09-30T20:06:33.047Z,23.48
2022-09-30T20:09:07.096Z,23.39
2022-09-30T20:11:36.373Z,23.44
2022-09-30T20:14:43.141Z,23.46
2022-09-30T20:17:12.225Z,23.45
2022-09-30T20:19:39.349Z,23.45
2022-09-30T20:22:06.796Z,23.47
2022-09-30T20:24:34.190Z,23.49
2022-09-30T20:27:01.305Z,23.53
2022-09-30T20:29:28.434Z,23.24
2022-09-30T20:31:56.005Z,23.40
2022-09-30T20:34:23.282Z,23.20
2022-09-30T20:36:50.455Z,23.22
2022-09-30T20:39:17.970Z,23.36
2022-09-30T20:41:45.837Z,23.41
2022-09-30T20:44:13.133Z,23.39
2022-09-30T20:46:41.613Z,23.46
2022-09-30T20:49:09.440Z,23.38
2022-09-30T20:51:36.592Z,23.48
2022-09-30T20:54:06.399Z,23.55
2022-09-30T20:56:55.680Z,23.48
2022-09-30T20:59:20.959Z,23.06
2022-09-30T21:01:48.112Z,23.36
2022-09-30T21:04:15.588Z,23.40
2022-09-30T21:06:42.997Z,23.40
2022-09-30T21:09:13.270Z,23.46
2022-09-30T21:11:42.103Z,23.50
2022-09-30T21:14:09.553Z,23.44
2022-09-30T21:16:36.763Z,23.34
2022-09-30T21:19:03.892Z,23.44
2022-09-30T21:21:31.615Z,23.47
2022-09-30T21:23:59.931Z,23.53
2022-09-30T21:26:27.425Z,23.38
2022-09-30T21:28:54.878Z,23.46
2022-09-30T21:31:24.123Z,23.36
2022-09-30T21:33:56.367Z,23.21
2022-09-30T21:36:24.222Z,23.45
2022-09-30T21:38:51.456Z,23.32
2022-09-30T21:41:19.594Z,23.24
2022-09-30T21:43:47.190Z,23.25
2022-09-30T21:46:15.132Z,23.30
2022-09-30T21:48:42.554Z,23.13
2022-09-30T21:51:10.167Z,23.19
2022-09-30T21:53:38.875Z,23.28
2022-09-30T21:56:09.492Z,23.49
2022-09-30T21:58:36.971Z,23.36
2022-09-30T22:01:05.038Z,23.43
2022-09-30T22:03:37.355Z,23.60
2022-09-30T22:06:07.113Z,23.35
2022-09-30T22:08:40.206Z,23.04
2022-09-30T22:11:09.152Z,22.93
2022-09-30T22:13:37.026Z,22.93
2022-09-30T22:16:05.201Z,23.16
2022-09-30T22:18:33.015Z,23.37
2022-09-30T22:21:08.001Z,23.39
2022-09-30T22:23:35.111Z,23.08
2022-09-30T22:26:22.377Z,23.12
2022-09-30T22:28:57.600Z,23.20
2022-09-30T22:31:26.301Z,23.04
2022-09-30T22:34:13.163Z,22.88
2022-09-30T22:36:59.117Z,23.21
2022-09-30T22:39:26.243Z,23.36
2022-09-30T22:41:54.456Z,23.51
2022-09-30T22:44:22.079Z,23.39
2022-09-30T22:46:49.271Z,23.44
2022-09-30T22:49:16.707Z,23.49
2022-09-30T22:51:43.831Z,23.62
2022-09-30T22:54:11.788Z,23.71
2022-09-30T22:56:39.150Z,23.60
2022-09-30T22:59:06.858Z,23.62
2022-09-30T23:01:34.236Z,23.51
2022-09-30T23:04:01.947Z,23.66
2022-09-30T23:06:29.834Z,23.56
2022-09-30T23:08:56.942Z,23.71
2022-09-30T23:11:24.409Z,23.46
2022-09-30T23:13:58.178Z,23.51
2022-09-30T23:16:27.096Z,22.41
2022-09-30T23:18:54.515Z,21.38
2022-09-30T23:21:21.717Z,21.59
2022-09-30T23:23:49.100Z,21.85
2022-09-30T23:26:16.148Z,21.47
2022-09-30T23:28:43.318Z,21.80
2022-09-30T23:31:11.583Z,21.52
2022-09-30T23:33:49.184Z,21.16
2022-09-30T23:36:18.433Z,21.91
2022-09-30T23:38:46.040Z,21.84
2022-09-30T23:41:14.125Z,21.91
2022-09-30T23:43:48.412Z,21.93
2022-09-30T23:46:16.475Z,21.81
2022-09-30T23:48:45.886Z,21.73
2022-09-30T23:51:13.532Z,21.99
2022-09-30T23:53:40.712Z,21.53
2022-09-30T23:56:09.999Z,22.02
2022-09-30T23:58:37.346Z,21.36
